sensor_id;sensor_type;location;lat;lon;timestamp;pressure;altitude;pressure_sealevel;temperature;humidity
70781;BME280;59514;48.810;2.134;2023-03-25T00:02:03;99624.50;;;8.45;89.47
70781;BME280;59514;48.810;2.134;2023-03-25T00:04:29;99636.47;;;8.42;90.11
70781;BME280;59514;48.810;2.134;2023-03-25T00:06:55;99625.75;;;8.42;90.25
70781;BME280;59514;48.810;2.134;2023-03-25T00:09:21;99631.94;;;8.43;90.40
70781;BME280;59514;48.810;2.134;2023-03-25T00:11:49;99628.69;;;8.41;91.00
70781;BME280;59514;48.810;2.134;2023-03-25T00:14:14;99641.56;;;8.44;91.01
70781;BME280;59514;48.810;2.134;2023-03-25T00:16:41;99641.13;;;8.47;91.00
70781;BME280;59514;48.810;2.134;2023-03-25T00:19:07;99620.09;;;8.50;90.85
70781;BME280;59514;48.810;2.134;2023-03-25T00:21:33;99631.22;;;8.47;91.20
70781;BME280;59514;48.810;2.134;2023-03-25T00:23:59;99617.41;;;8.50;90.88
70781;BME280;59514;48.810;2.134;2023-03-25T00:26:25;99624.03;;;8.48;91.40
70781;BME280;59514;48.810;2.134;2023-03-25T00:28:54;99617.06;;;8.47;91.53
70781;BME280;59514;48.810;2.134;2023-03-25T00:31:19;99618.81;;;8.53;91.23
70781;BME280;59514;48.810;2.134;2023-03-25T00:33:45;99622.75;;;8.50;91.44
70781;BME280;59514;48.810;2.134;2023-03-25T00:36:11;99639.41;;;8.52;91.36
70781;BME280;59514;48.810;2.134;2023-03-25T00:38:38;99626.25;;;8.51;91.83
70781;BME280;59514;48.810;2.134;2023-03-25T00:41:15;99639.28;;;8.59;91.58
70781;BME280;59514;48.810;2.134;2023-03-25T00:43:52;99631.38;;;8.64;91.46
70781;BME280;59514;48.810;2.134;2023-03-25T00:46:17;99636.97;;;8.62;91.82
70781;BME280;59514;48.810;2.134;2023-03-25T00:48:43;99639.66;;;8.62;92.26
70781;BME280;59514;48.810;2.134;2023-03-25T00:51:08;99622.66;;;8.57;92.74
70781;BME280;59514;48.810;2.134;2023-03-25T00:53:38;99618.69;;;8.59;93.03
70781;BME280;59514;48.810;2.134;2023-03-25T00:56:04;99628.13;;;8.62;92.96
70781;BME280;59514;48.810;2.134;2023-03-25T00:58:29;99631.38;;;8.64;92.78
70781;BME280;59514;48.810;2.134;2023-03-25T01:00:55;99644.53;;;8.65;92.99
70781;BME280;59514;48.810;2.134;2023-03-25T01:03:23;99628.25;;;8.67;92.57
70781;BME280;59514;48.810;2.134;2023-03-25T01:05:49;99633.13;;;8.58;93.29
70781;BME280;59514;48.810;2.134;2023-03-25T01:08:14;99622.66;;;8.57;93.93
70781;BME280;59514;48.810;2.134;2023-03-25T01:10:42;99636.03;;;8.57;93.75
70781;BME280;59514;48.810;2.134;2023-03-25T01:13:08;99624.28;;;8.58;93.40
70781;BME280;59514;48.810;2.134;2023-03-25T01:15:34;99630.22;;;8.60;94.02
70781;BME280;59514;48.810;2.134;2023-03-25T01:17:59;99623.22;;;8.59;94.10
70781;BME280;59514;48.810;2.134;2023-03-25T01:20:25;99633.56;;;8.55;94.39
70781;BME280;59514;48.810;2.134;2023-03-25T01:22:51;99626.97;;;8.58;94.69
70781;BME280;59514;48.810;2.134;2023-03-25T01:25:16;99628.13;;;8.50;95.15
70781;BME280;59514;48.810;2.134;2023-03-25T01:27:42;99622.53;;;8.52;94.91
70781;BME280;59514;48.810;2.134;2023-03-25T01:30:07;99611.81;;;8.52;95.33
70781;BME280;59514;48.810;2.134;2023-03-25T01:32:33;99617.66;;;8.49;95.50
70781;BME280;59514;48.810;2.134;2023-03-25T01:34:58;99614.50;;;8.52;95.13
70781;BME280;59514;48.810;2.134;2023-03-25T01:37:24;99640.91;;;8.60;94.74
70781;BME280;59514;48.810;2.134;2023-03-25T01:39:51;99625.34;;;8.57;95.70
70781;BME280;59514;48.810;2.134;2023-03-25T01:42:16;99602.28;;;8.56;95.90
70781;BME280;59514;48.810;2.134;2023-03-25T01:47:10;99587.16;;;8.50;97.24
70781;BME280;59514;48.810;2.134;2023-03-25T01:49:43;99595.44;;;8.48;97.87
70781;BME280;59514;48.810;2.134;2023-03-25T01:52:20;99590.56;;;8.57;97.11
70781;BME280;59514;48.810;2.134;2023-03-25T01:54:51;99586.94;;;8.51;97.77
70781;BME280;59514;48.810;2.134;2023-03-25T01:57:19;99583.47;;;8.51;98.34
70781;BME280;59514;48.810;2.134;2023-03-25T01:59:46;99578.56;;;8.48;98.30
70781;BME280;59514;48.810;2.134;2023-03-25T02:02:12;99583.31;;;8.46;99.52
70781;BME280;59514;48.810;2.134;2023-03-25T02:04:43;99581.47;;;8.46;99.27
70781;BME280;59514;48.810;2.134;2023-03-25T02:07:16;99595.19;;;8.38;100.00
70781;BME280;59514;48.810;2.134;2023-03-25T02:09:43;99596.78;;;8.39;100.00
70781;BME280;59514;48.810;2.134;2023-03-25T02:12:08;99592.72;;;8.37;100.00
70781;BME280;59514;48.810;2.134;2023-03-25T02:14:34;99583.66;;;8.38;100.00
70781;BME280;59514;48.810;2.134;2023-03-25T02:19:58;99580.53;;;8.41;100.00
70781;BME280;59514;48.810;2.134;2023-03-25T02:28:38;99589.03;;;8.61;97.87
70781;BME280;59514;48.810;2.134;2023-03-25T02:37:09;99585.81;;;8.82;95.26
70781;BME280;59514;48.810;2.134;2023-03-25T02:39:41;99578.94;;;8.75;95.94
70781;BME280;59514;48.810;2.134;2023-03-25T02:42:20;99581.38;;;8.76;95.70
70781;BME280;59514;48.810;2.134;2023-03-25T02:47:54;99571.25;;;8.90;94.48
70781;BME280;59514;48.810;2.134;2023-03-25T02:50:37;99569.75;;;8.82;95.26
70781;BME280;59514;48.810;2.134;2023-03-25T02:53:04;99591.50;;;8.86;94.71
70781;BME280;59514;48.810;2.134;2023-03-25T02:55:33;99572.66;;;8.81;94.94
70781;BME280;59514;48.810;2.134;2023-03-25T02:58:01;99566.47;;;8.80;95.34
70781;BME280;59514;48.810;2.134;2023-03-25T03:00:29;99582.78;;;8.90;94.06
70781;BME280;59514;48.810;2.134;2023-03-25T03:03:01;99574.41;;;8.87;94.83
70781;BME280;59514;48.810;2.134;2023-03-25T03:05:35;99576.59;;;8.90;94.55
70781;BME280;59514;48.810;2.134;2023-03-25T03:11:19;99584.97;;;8.82;95.46
70781;BME280;59514;48.810;2.134;2023-03-25T03:19:11;99582.88;;;8.84;94.34
70781;BME280;59514;48.810;2.134;2023-03-25T03:21:55;99577.66;;;8.89;94.29
70781;BME280;59514;48.810;2.134;2023-03-25T03:24:37;99595.56;;;8.88;94.12
70781;BME280;59514;48.810;2.134;2023-03-25T03:27:09;99584.38;;;8.91;94.26
70781;BME280;59514;48.810;2.134;2023-03-25T03:29:44;99580.91;;;9.02;91.99
70781;BME280;59514;48.810;2.134;2023-03-25T03:32:11;99594.28;;;9.02;92.48
70781;BME280;59514;48.810;2.134;2023-03-25T03:34:44;99572.03;;;9.13;90.06
70781;BME280;59514;48.810;2.134;2023-03-25T03:37:23;99585.31;;;9.08;91.20
70781;BME280;59514;48.810;2.134;2023-03-25T03:39:51;99595.09;;;9.14;89.92
70781;BME280;59514;48.810;2.134;2023-03-25T03:42:33;99573.56;;;9.09;90.56
70781;BME280;59514;48.810;2.134;2023-03-25T03:45:05;99586.84;;;9.04;90.92
70781;BME280;59514;48.810;2.134;2023-03-25T03:47:36;99588.78;;;9.09;90.00
70781;BME280;59514;48.810;2.134;2023-03-25T03:50:06;99588.94;;;9.02;90.27
70781;BME280;59514;48.810;2.134;2023-03-25T03:52:42;99580.31;;;9.00;90.56
70781;BME280;59514;48.810;2.134;2023-03-25T03:55:18;99585.78;;;8.94;91.37
70781;BME280;59514;48.810;2.134;2023-03-25T03:57:50;99590.91;;;8.95;90.70
70781;BME280;59514;48.810;2.134;2023-03-25T04:00:21;99588.81;;;8.97;89.81
70781;BME280;59514;48.810;2.134;2023-03-25T04:02:54;99610.72;;;8.94;89.73
70781;BME280;59514;48.810;2.134;2023-03-25T04:05:22;99618.25;;;8.97;89.02
70781;BME280;59514;48.810;2.134;2023-03-25T04:07:52;99612.31;;;8.95;88.83
70781;BME280;59514;48.810;2.134;2023-03-25T04:12:54;99605.34;;;8.94;89.19
70781;BME280;59514;48.810;2.134;2023-03-25T04:15:20;99605.69;;;8.98;89.29
70781;BME280;59514;48.810;2.134;2023-03-25T04:17:46;99605.81;;;8.91;89.83
70781;BME280;59514;48.810;2.134;2023-03-25T04:20:20;99616.50;;;8.91;90.37
70781;BME280;59514;48.810;2.134;2023-03-25T04:22:50;99625.84;;;8.89;90.13
70781;BME280;59514;48.810;2.134;2023-03-25T04:25:17;99619.09;;;8.86;90.65
70781;BME280;59514;48.810;2.134;2023-03-25T04:27:42;99629.22;;;8.84;90.47
70781;BME280;59514;48.810;2.134;2023-03-25T04:30:10;99633.97;;;8.82;90.73
70781;BME280;59514;48.810;2.134;2023-03-25T04:32:35;99647.22;;;8.77;91.00
70781;BME280;59514;48.810;2.134;2023-03-25T04:35:01;99639.78;;;8.79;90.66
70781;BME280;59514;48.810;2.134;2023-03-25T04:37:27;99638.16;;;8.78;91.07
70781;BME280;59514;48.810;2.134;2023-03-25T04:39:53;99642.94;;;8.76;91.27
70781;BME280;59514;48.810;2.134;2023-03-25T04:42:20;99639.91;;;8.73;91.16
70781;BME280;59514;48.810;2.134;2023-03-25T04:44:50;99653.72;;;8.69;91.34
70781;BME280;59514;48.810;2.134;2023-03-25T04:47:18;99653.97;;;8.68;91.95
70781;BME280;59514;48.810;2.134;2023-03-25T04:49:45;99652.31;;;8.67;91.66
70781;BME280;59514;48.810;2.134;2023-03-25T04:52:12;99650.72;;;8.66;91.25
70781;BME280;59514;48.810;2.134;2023-03-25T04:54:37;99654.41;;;8.65;90.83
70781;BME280;59514;48.810;2.134;2023-03-25T04:57:02;99660.34;;;8.67;90.38
70781;BME280;59514;48.810;2.134;2023-03-25T04:59:28;99651.53;;;8.66;90.36
70781;BME280;59514;48.810;2.134;2023-03-25T05:01:53;99649.28;;;8.63;90.13
70781;BME280;59514;48.810;2.134;2023-03-25T05:04:19;99652.78;;;8.64;89.36
70781;BME280;59514;48.810;2.134;2023-03-25T05:06:47;99657.22;;;8.70;87.83
70781;BME280;59514;48.810;2.134;2023-03-25T05:09:18;99663.03;;;8.67;88.15
70781;BME280;59514;48.810;2.134;2023-03-25T05:11:44;99667.34;;;8.68;87.57
70781;BME280;59514;48.810;2.134;2023-03-25T05:14:12;99666.75;;;8.66;87.49
70781;BME280;59514;48.810;2.134;2023-03-25T05:16:38;99671.06;;;8.67;87.37
70781;BME280;59514;48.810;2.134;2023-03-25T05:19:04;99674.19;;;8.64;87.28
70781;BME280;59514;48.810;2.134;2023-03-25T05:21:34;99659.75;;;8.65;86.88
70781;BME280;59514;48.810;2.134;2023-03-25T05:24:03;99666.53;;;8.67;86.43
70781;BME280;59514;48.810;2.134;2023-03-25T05:26:32;99679.91;;;8.67;86.16
70781;BME280;59514;48.810;2.134;2023-03-25T05:29:07;99679.06;;;8.67;86.34
70781;BME280;59514;48.810;2.134;2023-03-25T05:31:33;99679.56;;;8.64;86.75
70781;BME280;59514;48.810;2.134;2023-03-25T05:33:59;99676.28;;;8.62;86.83
70781;BME280;59514;48.810;2.134;2023-03-25T05:36:25;99687.81;;;8.62;87.47
70781;BME280;59514;48.810;2.134;2023-03-25T05:38:52;99687.44;;;8.59;88.31
70781;BME280;59514;48.810;2.134;2023-03-25T05:41:21;99687.44;;;8.59;88.08
70781;BME280;59514;48.810;2.134;2023-03-25T05:43:57;99694.09;;;8.56;88.25
70781;BME280;59514;48.810;2.134;2023-03-25T05:46:24;99702.53;;;8.53;89.07
70781;BME280;59514;48.810;2.134;2023-03-25T05:48:50;99700.69;;;8.54;88.84
70781;BME280;59514;48.810;2.134;2023-03-25T05:51:17;99702.34;;;8.55;88.73
70781;BME280;59514;48.810;2.134;2023-03-25T05:53:46;99698.59;;;8.56;88.07
70781;BME280;59514;48.810;2.134;2023-03-25T05:56:16;99716.31;;;8.57;88.44
70781;BME280;59514;48.810;2.134;2023-03-25T05:58:44;99712.22;;;8.54;89.46
70781;BME280;59514;48.810;2.134;2023-03-25T06:01:10;99704.59;;;8.40;92.32
70781;BME280;59514;48.810;2.134;2023-03-25T06:03:38;99711.69;;;8.34;94.26
70781;BME280;59514;48.810;2.134;2023-03-25T06:06:04;99718.75;;;8.29;94.12
70781;BME280;59514;48.810;2.134;2023-03-25T06:08:29;99725.72;;;8.30;95.03
70781;BME280;59514;48.810;2.134;2023-03-25T06:10:56;99740.94;;;8.29;93.35
70781;BME280;59514;48.810;2.134;2023-03-25T06:13:26;99737.47;;;8.29;94.86
70781;BME280;59514;48.810;2.134;2023-03-25T06:15:51;99730.75;;;8.20;96.44
70781;BME280;59514;48.810;2.134;2023-03-25T06:18:23;99741.91;;;8.17;95.51
70781;BME280;59514;48.810;2.134;2023-03-25T06:20:50;99744.22;;;8.13;96.58
70781;BME280;59514;48.810;2.134;2023-03-25T06:23:16;99747.56;;;8.09;96.81
70781;BME280;59514;48.810;2.134;2023-03-25T06:25:41;99743.03;;;8.09;96.73
70781;BME280;59514;48.810;2.134;2023-03-25T06:28:06;99744.88;;;8.09;96.45
70781;BME280;59514;48.810;2.134;2023-03-25T06:30:32;99758.03;;;8.10;96.46
70781;BME280;59514;48.810;2.134;2023-03-25T06:32:57;99761.88;;;8.14;95.53
70781;BME280;59514;48.810;2.134;2023-03-25T06:35:26;99762.25;;;8.18;96.24
70781;BME280;59514;48.810;2.134;2023-03-25T06:37:52;99772.66;;;8.26;94.41
70781;BME280;59514;48.810;2.134;2023-03-25T06:40:17;99766.41;;;8.32;93.76
70781;BME280;59514;48.810;2.134;2023-03-25T06:42:44;99782.47;;;8.32;94.31
70781;BME280;59514;48.810;2.134;2023-03-25T06:45:10;99769.69;;;8.34;93.49
70781;BME280;59514;48.810;2.134;2023-03-25T06:47:37;99772.38;;;8.34;92.88
70781;BME280;59514;48.810;2.134;2023-03-25T06:50:03;99775.63;;;8.36;93.14
70781;BME280;59514;48.810;2.134;2023-03-25T06:52:28;99779.94;;;8.37;92.78
70781;BME280;59514;48.810;2.134;2023-03-25T06:54:54;99774.97;;;8.40;91.91
70781;BME280;59514;48.810;2.134;2023-03-25T06:57:19;99783.34;;;8.44;91.69
70781;BME280;59514;48.810;2.134;2023-03-25T06:59:44;99785.59;;;8.47;91.53
70781;BME280;59514;48.810;2.134;2023-03-25T07:02:12;99782.44;;;8.50;91.68
70781;BME280;59514;48.810;2.134;2023-03-25T07:04:38;99788.53;;;8.57;91.08
70781;BME280;59514;48.810;2.134;2023-03-25T07:07:04;99786.13;;;8.67;90.51
70781;BME280;59514;48.810;2.134;2023-03-25T07:09:29;99790.22;;;8.69;89.38
70781;BME280;59514;48.810;2.134;2023-03-25T07:11:54;99780.25;;;8.77;89.21
70781;BME280;59514;48.810;2.134;2023-03-25T07:14:20;99793.97;;;8.80;88.72
70781;BME280;59514;48.810;2.134;2023-03-25T07:16:45;99782.81;;;8.83;87.26
70781;BME280;59514;48.810;2.134;2023-03-25T07:19:10;99797.84;;;8.84;88.12
70781;BME280;59514;48.810;2.134;2023-03-25T07:21:36;99785.03;;;8.86;87.96
70781;BME280;59514;48.810;2.134;2023-03-25T07:24:01;99796.94;;;8.90;86.49
70781;BME280;59514;48.810;2.134;2023-03-25T07:26:26;99791.69;;;8.95;85.92
70781;BME280;59514;48.810;2.134;2023-03-25T07:28:51;99796.28;;;9.06;86.02
70781;BME280;59514;48.810;2.134;2023-03-25T07:31:17;99813.28;;;9.12;84.48
70781;BME280;59514;48.810;2.134;2023-03-25T07:33:42;99803.06;;;9.20;84.09
70781;BME280;59514;48.810;2.134;2023-03-25T07:36:10;99798.41;;;9.27;84.27
70781;BME280;59514;48.810;2.134;2023-03-25T07:38:36;99813.44;;;9.28;83.96
70781;BME280;59514;48.810;2.134;2023-03-25T07:41:06;99815.41;;;9.33;84.02
70781;BME280;59514;48.810;2.134;2023-03-25T07:43:32;99814.03;;;9.30;83.86
70781;BME280;59514;48.810;2.134;2023-03-25T07:45:57;99815.31;;;9.39;83.26
70781;BME280;59514;48.810;2.134;2023-03-25T07:48:23;99818.34;;;9.31;81.51
70781;BME280;59514;48.810;2.134;2023-03-25T07:50:50;99831.16;;;9.52;82.87
70781;BME280;59514;48.810;2.134;2023-03-25T07:53:15;99835.84;;;9.45;82.49
70781;BME280;59514;48.810;2.134;2023-03-25T07:55:41;99836.41;;;9.47;82.64
70781;BME280;59514;48.810;2.134;2023-03-25T07:58:06;99825.38;;;9.55;82.26
70781;BME280;59514;48.810;2.134;2023-03-25T08:00:31;99843.78;;;9.64;80.46
70781;BME280;59514;48.810;2.134;2023-03-25T08:02:57;99831.91;;;9.71;80.76
70781;BME280;59514;48.810;2.134;2023-03-25T08:05:22;99849.97;;;9.76;79.15
70781;BME280;59514;48.810;2.134;2023-03-25T08:07:50;99846.72;;;9.85;78.16
70781;BME280;59514;48.810;2.134;2023-03-25T08:10:16;99858.84;;;9.88;78.45
70781;BME280;59514;48.810;2.134;2023-03-25T08:12:43;99862.78;;;9.97;79.49
70781;BME280;59514;48.810;2.134;2023-03-25T08:15:09;99857.19;;;9.87;78.28
70781;BME280;59514;48.810;2.134;2023-03-25T08:17:36;99853.59;;;9.93;79.39
70781;BME280;59514;48.810;2.134;2023-03-25T08:20:02;99873.63;;;9.90;78.89
70781;BME280;59514;48.810;2.134;2023-03-25T08:22:32;99866.41;;;10.02;79.00
70781;BME280;59514;48.810;2.134;2023-03-25T08:24:57;99852.06;;;9.97;77.85
70781;BME280;59514;48.810;2.134;2023-03-25T08:27:23;99870.66;;;10.10;77.30
70781;BME280;59514;48.810;2.134;2023-03-25T08:29:48;99875.84;;;10.05;78.08
70781;BME280;59514;48.810;2.134;2023-03-25T08:32:23;99863.78;;;10.14;77.52
70781;BME280;59514;48.810;2.134;2023-03-25T08:34:48;99868.19;;;10.20;77.50
70781;BME280;59514;48.810;2.134;2023-03-25T08:37:14;99877.88;;;10.21;77.50
70781;BME280;59514;48.810;2.134;2023-03-25T08:39:40;99867.84;;;10.28;77.40
70781;BME280;59514;48.810;2.134;2023-03-25T08:42:11;99893.72;;;10.22;75.50
70781;BME280;59514;48.810;2.134;2023-03-25T08:44:36;99874.16;;;10.22;75.50
70781;BME280;59514;48.810;2.134;2023-03-25T08:47:02;99888.59;;;10.21;75.06
70781;BME280;59514;48.810;2.134;2023-03-25T08:49:28;99885.47;;;10.24;75.35
70781;BME280;59514;48.810;2.134;2023-03-25T08:51:53;99885.47;;;10.24;75.71
70781;BME280;59514;48.810;2.134;2023-03-25T08:54:21;99876.22;;;10.31;76.72
70781;BME280;59514;48.810;2.134;2023-03-25T08:56:47;99883.09;;;10.39;75.93
70781;BME280;59514;48.810;2.134;2023-03-25T08:59:12;99871.78;;;10.37;73.71
70781;BME280;59514;48.810;2.134;2023-03-25T09:01:38;99882.38;;;10.32;73.29
70781;BME280;59514;48.810;2.134;2023-03-25T09:04:04;99878.63;;;10.56;73.63
70781;BME280;59514;48.810;2.134;2023-03-25T09:06:29;99870.69;;;10.61;73.22
70781;BME280;59514;48.810;2.134;2023-03-25T09:08:54;99869.41;;;10.64;71.07
70781;BME280;59514;48.810;2.134;2023-03-25T09:11:20;99863.09;;;10.70;71.56
70781;BME280;59514;48.810;2.134;2023-03-25T09:13:46;99874.56;;;10.93;70.88
70781;BME280;59514;48.810;2.134;2023-03-25T09:16:11;99879.66;;;11.06;70.11
70781;BME280;59514;48.810;2.134;2023-03-25T09:18:36;99865.63;;;11.04;69.30
70781;BME280;59514;48.810;2.134;2023-03-25T09:21:02;99875.31;;;11.34;68.88
70781;BME280;59514;48.810;2.134;2023-03-25T09:23:28;99893.91;;;11.35;69.08
70781;BME280;59514;48.810;2.134;2023-03-25T09:25:54;99898.84;;;11.26;68.68
70781;BME280;59514;48.810;2.134;2023-03-25T09:28:20;99898.31;;;11.13;68.99
70781;BME280;59514;48.810;2.134;2023-03-25T09:30:46;99892.94;;;11.13;69.37
70781;BME280;59514;48.810;2.134;2023-03-25T09:33:11;99905.59;;;11.01;69.79
70781;BME280;59514;48.810;2.134;2023-03-25T09:35:39;99908.13;;;10.79;70.44
70781;BME280;59514;48.810;2.134;2023-03-25T09:38:04;99896.66;;;10.84;70.07
70781;BME280;59514;48.810;2.134;2023-03-25T09:40:30;99908.66;;;10.93;70.50
70781;BME280;59514;48.810;2.134;2023-03-25T09:45:59;99932.72;;;10.99;71.17
70781;BME280;59514;48.810;2.134;2023-03-25T09:48:36;99918.22;;;11.00;71.41
70781;BME280;59514;48.810;2.134;2023-03-25T09:51:11;99922.28;;;11.03;70.90
70781;BME280;59514;48.810;2.134;2023-03-25T09:56:26;99948.66;;;11.06;72.54
70781;BME280;59514;48.810;2.134;2023-03-25T09:58:59;99946.09;;;11.11;73.06
70781;BME280;59514;48.810;2.134;2023-03-25T10:04:52;99952.66;;;11.32;71.03
70781;BME280;59514;48.810;2.134;2023-03-25T10:12:45;99961.69;;;11.54;70.95
70781;BME280;59514;48.810;2.134;2023-03-25T10:21:18;99924.94;;;11.87;65.67
70781;BME280;59514;48.810;2.134;2023-03-25T10:26:40;99934.06;;;12.36;66.67
70781;BME280;59514;48.810;2.134;2023-03-25T10:29:12;99926.88;;;12.25;66.83
70781;BME280;59514;48.810;2.134;2023-03-25T10:31:45;99935.53;;;11.94;67.12
70781;BME280;59514;48.810;2.134;2023-03-25T10:34:16;99957.31;;;12.09;67.41
70781;BME280;59514;48.810;2.134;2023-03-25T10:36:52;99944.34;;;11.89;67.04
70781;BME280;59514;48.810;2.134;2023-03-25T10:39:22;99952.09;;;11.86;66.68
70781;BME280;59514;48.810;2.134;2023-03-25T10:41:54;99936.34;;;12.11;66.74
70781;BME280;59514;48.810;2.134;2023-03-25T10:44:24;99943.06;;;12.47;66.46
70781;BME280;59514;48.810;2.134;2023-03-25T10:46:57;99931.63;;;12.35;65.17
70781;BME280;59514;48.810;2.134;2023-03-25T10:49:29;99936.19;;;12.72;63.91
70781;BME280;59514;48.810;2.134;2023-03-25T10:51:55;99943.78;;;12.59;64.22
70781;BME280;59514;48.810;2.134;2023-03-25T10:54:27;99939.91;;;12.33;64.46
70781;BME280;59514;48.810;2.134;2023-03-25T10:56:55;99935.47;;;12.22;65.08
70781;BME280;59514;48.810;2.134;2023-03-25T10:59:26;99947.19;;;12.16;64.39
70781;BME280;59514;48.810;2.134;2023-03-25T11:01:55;99950.03;;;12.43;64.45
70781;BME280;59514;48.810;2.134;2023-03-25T11:04:25;99943.84;;;12.26;63.48
70781;BME280;59514;48.810;2.134;2023-03-25T11:06:54;99950.88;;;12.10;64.54
70781;BME280;59514;48.810;2.134;2023-03-25T11:09:29;99954.34;;;12.44;64.33
70781;BME280;59514;48.810;2.134;2023-03-25T11:12:00;99954.09;;;12.45;64.58
70781;BME280;59514;48.810;2.134;2023-03-25T11:14:28;99951.03;;;12.37;65.61
70781;BME280;59514;48.810;2.134;2023-03-25T11:16:56;99944.00;;;12.52;65.08
70781;BME280;59514;48.810;2.134;2023-03-25T11:19:30;99974.81;;;12.61;65.30
70781;BME280;59514;48.810;2.134;2023-03-25T11:22:00;99981.84;;;12.62;64.07
70781;BME280;59514;48.810;2.134;2023-03-25T11:24:31;99965.84;;;12.56;65.27
70781;BME280;59514;48.810;2.134;2023-03-25T11:26:59;99971.91;;;12.13;65.04
70781;BME280;59514;48.810;2.134;2023-03-25T11:29:26;99966.63;;;12.18;66.99
70781;BME280;59514;48.810;2.134;2023-03-25T11:32:15;99960.19;;;12.95;64.29
70781;BME280;59514;48.810;2.134;2023-03-25T11:34:46;99968.84;;;12.97;64.63
70781;BME280;59514;48.810;2.134;2023-03-25T11:37:19;99958.34;;;13.18;64.46
70781;BME280;59514;48.810;2.134;2023-03-25T11:39:53;99970.88;;;12.69;64.37
70781;BME280;59514;48.810;2.134;2023-03-25T11:44:52;99959.69;;;12.39;63.96
70781;BME280;59514;48.810;2.134;2023-03-25T11:47:22;99978.59;;;12.27;65.34
70781;BME280;59514;48.810;2.134;2023-03-25T11:49:51;99975.81;;;12.77;63.83
70781;BME280;59514;48.810;2.134;2023-03-25T11:52:21;99989.03;;;13.17;63.64
70781;BME280;59514;48.810;2.134;2023-03-25T11:54:48;99963.34;;;13.84;61.23
70781;BME280;59514;48.810;2.134;2023-03-25T11:57:19;99962.00;;;14.13;60.35
70781;BME280;59514;48.810;2.134;2023-03-25T11:59:47;99970.31;;;14.07;61.10
70781;BME280;59514;48.810;2.134;2023-03-25T12:02:25;99961.16;;;14.39;62.14
70781;BME280;59514;48.810;2.134;2023-03-25T12:05:00;99963.84;;;13.54;62.12
70781;BME280;59514;48.810;2.134;2023-03-25T12:07:27;99965.53;;;13.34;61.56
70781;BME280;59514;48.810;2.134;2023-03-25T12:09:55;99949.84;;;12.87;64.43
70781;BME280;59514;48.810;2.134;2023-03-25T12:12:46;99953.06;;;12.46;66.37
70781;BME280;59514;48.810;2.134;2023-03-25T12:15:35;99961.28;;;12.23;66.98
70781;BME280;59514;48.810;2.134;2023-03-25T12:18:33;99964.97;;;12.34;68.46
70781;BME280;59514;48.810;2.134;2023-03-25T12:21:15;99957.50;;;12.57;68.30
70781;BME280;59514;48.810;2.134;2023-03-25T12:29:21;99962.22;;;13.27;60.13
70781;BME280;59514;48.810;2.134;2023-03-25T12:32:06;99956.09;;;13.10;60.90
70781;BME280;59514;48.810;2.134;2023-03-25T12:37:35;99932.50;;;13.48;60.01
70781;BME280;59514;48.810;2.134;2023-03-25T12:40:41;99967.19;;;12.96;60.77
70781;BME280;59514;48.810;2.134;2023-03-25T12:43:23;99939.41;;;13.13;59.29
70781;BME280;59514;48.810;2.134;2023-03-25T12:49:10;99940.81;;;12.98;60.07
70781;BME280;59514;48.810;2.134;2023-03-25T12:51:50;99912.81;;;12.99;59.56
70781;BME280;59514;48.810;2.134;2023-03-25T12:54:43;99933.41;;;12.89;61.40
70781;BME280;59514;48.810;2.134;2023-03-25T12:57:23;99919.59;;;12.80;60.82
70781;BME280;59514;48.810;2.134;2023-03-25T13:03:27;99952.34;;;12.72;62.67
70781;BME280;59514;48.810;2.134;2023-03-25T13:06:16;99946.31;;;13.04;63.11
70781;BME280;59514;48.810;2.134;2023-03-25T13:08:58;99937.31;;;13.68;60.73
70781;BME280;59514;48.810;2.134;2023-03-25T13:11:32;99923.31;;;14.03;58.63
70781;BME280;59514;48.810;2.134;2023-03-25T13:14:03;99938.25;;;14.52;57.32
70781;BME280;59514;48.810;2.134;2023-03-25T13:16:33;99924.19;;;14.50;56.41
70781;BME280;59514;48.810;2.134;2023-03-25T13:19:09;99934.84;;;14.72;55.31
70781;BME280;59514;48.810;2.134;2023-03-25T13:21:38;99909.84;;;14.91;54.14
70781;BME280;59514;48.810;2.134;2023-03-25T13:24:13;99931.47;;;14.91;54.41
70781;BME280;59514;48.810;2.134;2023-03-25T13:26:40;99931.03;;;14.67;54.96
70781;BME280;59514;48.810;2.134;2023-03-25T13:29:24;99926.88;;;14.45;55.04
70781;BME280;59514;48.810;2.134;2023-03-25T13:31:53;99910.16;;;14.11;54.09
70781;BME280;59514;48.810;2.134;2023-03-25T13:34:27;99911.66;;;14.34;53.29
70781;BME280;59514;48.810;2.134;2023-03-25T13:37:07;99922.03;;;14.99;53.01
70781;BME280;59514;48.810;2.134;2023-03-25T13:45:21;99914.09;;;15.89;49.89
70781;BME280;59514;48.810;2.134;2023-03-25T13:47:56;99917.41;;;14.89;49.54
70781;BME280;59514;48.810;2.134;2023-03-25T13:50:27;99921.88;;;14.68;51.17
70781;BME280;59514;48.810;2.134;2023-03-25T13:52:59;99935.75;;;14.04;53.06
70781;BME280;59514;48.810;2.134;2023-03-25T13:55:44;99915.75;;;14.88;52.25
70781;BME280;59514;48.810;2.134;2023-03-25T14:03:39;99920.88;;;15.92;50.65
70781;BME280;59514;48.810;2.134;2023-03-25T14:11:42;99908.31;;;15.35;50.59
70781;BME280;59514;48.810;2.134;2023-03-25T14:14:13;99920.28;;;14.78;51.80
70781;BME280;59514;48.810;2.134;2023-03-25T14:16:46;99935.09;;;14.65;50.58
70781;BME280;59514;48.810;2.134;2023-03-25T14:19:14;99927.25;;;14.63;50.31
70781;BME280;59514;48.810;2.134;2023-03-25T14:21:45;99910.69;;;15.07;50.51
70781;BME280;59514;48.810;2.134;2023-03-25T14:24:35;99935.97;;;14.02;51.52
70781;BME280;59514;48.810;2.134;2023-03-25T14:27:19;99914.63;;;14.32;50.72
70781;BME280;59514;48.810;2.134;2023-03-25T14:29:59;99914.38;;;14.86;49.10
70781;BME280;59514;48.810;2.134;2023-03-25T14:32:30;99923.50;;;14.69;50.03
70781;BME280;59514;48.810;2.134;2023-03-25T14:43:25;99902.94;;;17.25;42.79
70781;BME280;59514;48.810;2.134;2023-03-25T14:51:17;99901.09;;;15.56;47.35
70781;BME280;59514;48.810;2.134;2023-03-25T14:56:21;99885.41;;;15.43;46.38
70781;BME280;59514;48.810;2.134;2023-03-25T14:58:51;99888.03;;;17.71;42.57
70781;BME280;59514;48.810;2.134;2023-03-25T15:01:19;99884.81;;;16.36;45.10
70781;BME280;59514;48.810;2.134;2023-03-25T15:03:45;99895.59;;;15.21;47.66
70781;BME280;59514;48.810;2.134;2023-03-25T15:06:17;99925.19;;;14.86;48.81